This is the latest recevied weather packets stored in our database for station/object OE3MNS-13. If no packets are shown the sender has not sent any weather packets the latest 10 day(s).
| Time | Temp. | Humidity | Pressure | Rain* | Wind** | Luminosity | Snow |
|---|---|---|---|---|---|---|---|
| 1777410320 | 10.56° C | 49% | 1020.9 hPa | 0 mm | - | 0 W/m² | - |
| 1777406123 | 11.11° C | 49% | 1020.2 hPa | 0 mm | - | 0 W/m² | - |
| 1777405541 | 11.11° C | 49% | 1020.1 hPa | 0 mm | - | 0 W/m² | - |
| 1777404938 | 11.11° C | 48% | 1020 hPa | 0 mm | - | 0 W/m² | - |
| 1777401919 | 12.78° C | 44% | 1019.4 hPa | 0 mm | - | 0 W/m² | - |
| 1777398919 | 14.44° C | 39% | 1018.8 hPa | 0 mm | - | 7 W/m² | - |
| 1777394120 | 17.78° C | 32% | 1018 hPa | 0 mm | - | 85 W/m² | - |
| 1777386620 | 18.89° C | 31% | 1018.1 hPa | 0 mm | - | 390 W/m² | - |
| 1777383641 | 20° C | 29% | 1018.5 hPa | 0 mm | - | 496 W/m² | - |
| 1777375218 | 19.44° C | 31% | 1019.5 hPa | 0 mm | - | 727 W/m² | - |
| 1777371023 | 18.33° C | 35% | 1019.9 hPa | 0 mm | - | 689 W/m² | - |
| 1777369817 | 17.22° C | 34% | 1020 hPa | 0 mm | - | 524 W/m² | - |
| 1777369221 | 17.22° C | 32% | 1019.9 hPa | 0 mm | - | 527 W/m² | - |
| 1777365023 | 16.11° C | 45% | 1020.2 hPa | 0 mm | - | 650 W/m² | - |
| 1777363819 | 13.89° C | 52% | 1020.2 hPa | 0 mm | - | 544 W/m² | - |
| 1777363225 | 12.78° C | 53% | 1020.2 hPa | 0 mm | - | 377 W/m² | - |
| 1777357820 | 7.78° C | 66% | 1020.1 hPa | 0 mm | - | 272 W/m² | - |
| 1777355444 | 7.22° C | 69% | 1020.3 hPa | 0 mm | - | 123 W/m² | - |
| 1777353618 | 5.56° C | 77% | 1020.1 hPa | 0 mm | - | 101 W/m² | - |
| 1777348222 | 3.89° C | 81% | 1019.6 hPa | 0 mm | - | 3 W/m² | - |
| 1777345819 | 3.89° C | 80% | 1019.6 hPa | 0 mm | - | 0 W/m² | - |
| 1777340421 | 4.44° C | 76% | 1019.6 hPa | 0 mm | - | 0 W/m² | - |
| 1777339220 | 4.44° C | 74% | 1019.7 hPa | 0 mm | - | 0 W/m² | - |
| 1777338622 | 5° C | 73% | 1019.7 hPa | 0 mm | - | 0 W/m² | - |
| 1777336222 | 5.56° C | 69% | 1019.6 hPa | 0 mm | - | 0 W/m² | - |
* Rain latest hour (hover to see other rain measurements)
** Current wind speed in m/s (hover to see current wind gust speed)